Time;durP1;ratioP1;P1;durP2;ratioP2;P2;SDS_P1;SDS_P2;PMS_P1;PMS_P2;Temp;Humidity;BMP_temperature;BMP_pressure;BME280_temperature;BME280_humidity;BME280_pressure;Samples;Min_cycle;Max_cycle;Signal;HPM_P1;HPM_P2
2023/03/17 00:02:17;;;;;;;10.13;7.00;;;;;;;5.57;81.09;96452.94;5074559;28;20180;-62
2023/03/17 00:04:42;;;;;;;8.43;7.63;;;;;;;5.57;80.93;96458.13;5073209;28;20506;-62
2023/03/17 00:07:13;;;;;;;8.37;7.53;;;;;;;5.45;82.18;96450.16;5075809;28;20165;-63
2023/03/17 00:09:39;;;;;;;8.77;7.97;;;;;;;5.48;82.34;96452.34;5073604;28;20205;-60
2023/03/17 00:12:09;;;;;;;9.07;8.27;;;;;;;5.50;82.51;96449.53;5074508;28;20709;-61
2023/03/17 00:14:35;;;;;;;9.57;8.77;;;;;;;5.39;83.04;96441.38;5074492;28;20189;-60
2023/03/17 00:17:00;;;;;;;10.33;9.23;;;;;;;5.44;82.88;96433.75;5074482;28;20248;-59
2023/03/17 00:19:30;;;;;;;10.67;9.67;;;;;;;5.41;82.76;96430.75;5075013;28;20288;-61
2023/03/17 00:21:56;;;;;;;10.03;9.17;;;;;;;5.45;83.21;96429.38;5075315;28;20539;-62
2023/03/17 00:24:22;;;;;;;10.03;9.23;;;;;;;5.42;83.22;96427.16;5075144;28;20182;-62
2023/03/17 00:26:47;;;;;;;11.93;10.87;;;;;;;5.43;83.97;96426.97;5073613;28;20173;-62
2023/03/17 00:29:14;;;;;;;12.47;11.37;;;;;;;5.34;83.78;96425.59;5073887;28;20215;-62
2023/03/17 00:31:44;;;;;;;14.03;12.93;;;;;;;5.32;84.08;96417.19;5060849;28;20192;-62
2023/03/17 00:34:17;;;;;;;13.77;12.67;;;;;;;5.30;84.79;96413.19;5073950;28;20201;-62
2023/03/17 00:36:45;;;;;;;11.60;10.50;;;;;;;5.37;85.00;96408.78;5071609;28;20205;-62
2023/03/17 00:39:15;;;;;;;9.67;8.87;;;;;;;5.40;84.95;96416.97;5074000;28;20201;-62
2023/03/17 00:41:42;;;;;;;9.10;8.23;;;;;;;5.44;84.64;96407.78;5073499;28;20191;-62
2023/03/17 00:44:08;;;;;;;8.53;7.73;;;;;;;5.41;84.72;96415.16;5073656;28;20181;-62
2023/03/17 00:46:36;;;;;;;8.73;7.30;;;;;;;5.37;85.49;96408.78;5073427;28;20661;-62
2023/03/17 00:49:08;;;;;;;7.77;7.07;;;;;;;5.43;85.14;96398.38;5061747;28;20212;-62
2023/03/17 00:51:33;;;;;;;7.90;7.10;;;;;;;5.41;85.21;96400.38;5073282;28;20189;-62
2023/03/17 00:53:59;;;;;;;7.70;7.00;;;;;;;5.36;86.19;96401.97;5070693;28;20701;-62
2023/03/17 00:56:24;;;;;;;7.93;7.13;;;;;;;5.40;85.40;96395.41;5073563;28;20174;-62
2023/03/17 00:58:50;;;;;;;7.60;6.97;;;;;;;5.34;85.64;96388.41;5073364;28;20201;-61
2023/03/17 01:01:17;;;;;;;8.37;7.33;;;;;;;5.38;85.74;96392.19;5073193;28;20188;-61
2023/03/17 01:03:43;;;;;;;8.30;7.40;;;;;;;5.40;86.19;96390.19;5073149;28;20295;-62
2023/03/17 01:06:11;;;;;;;8.50;7.60;;;;;;;5.38;86.99;96393.00;5073243;28;20182;-62
2023/03/17 01:08:39;;;;;;;8.80;7.90;;;;;;;5.35;87.17;96387.41;5073176;28;20353;-60
2023/03/17 01:11:05;;;;;;;7.93;7.23;;;;;;;5.34;88.39;96375.41;5073140;28;20227;-61
2023/03/17 01:13:31;;;;;;;9.50;8.60;;;;;;;5.32;88.09;96369.63;5053914;28;20169;-61
2023/03/17 01:15:56;;;;;;;9.60;8.70;;;;;;;5.26;88.99;96370.44;5072973;28;20182;-61
2023/03/17 01:18:23;;;;;;;12.30;10.07;;;;;;;5.22;89.01;96364.03;5072867;28;20229;-61
2023/03/17 01:20:49;;;;;;;10.40;9.50;;;;;;;5.30;88.13;96351.63;5076993;28;20629;-62
2023/03/17 01:23:15;;;;;;;11.60;10.50;;;;;;;5.29;88.65;96350.03;5073222;28;20231;-61
2023/03/17 01:25:41;;;;;;;9.70;8.90;;;;;;;5.15;89.88;96366.66;5072706;28;20187;-60
2023/03/17 01:28:11;;;;;;;11.17;10.10;;;;;;;5.17;90.03;96369.84;5072987;28;20248;-62
2023/03/17 01:30:38;;;;;;;10.10;9.27;;;;;;;5.20;89.74;96369.44;5072629;28;20238;-62
2023/03/17 01:33:07;;;;;;;10.43;9.43;;;;;;;5.17;89.51;96369.84;5072937;28;20207;-62
2023/03/17 01:35:34;;;;;;;9.77;8.97;;;;;;;5.17;89.97;96363.84;5071434;28;20209;-62
2023/03/17 01:38:00;;;;;;;9.93;9.03;;;;;;;5.20;89.93;96360.84;5072765;28;20257;-62
2023/03/17 01:40:29;;;;;;;9.23;8.43;;;;;;;5.17;89.85;96369.84;5072559;28;20177;-62
2023/03/17 01:43:09;;;;;;;9.10;8.40;;;;;;;5.15;90.69;96365.84;5072871;28;20185;-62
2023/03/17 01:46:12;;;;;;;9.87;8.50;;;;;;;5.20;90.14;96356.44;5072276;28;20177;-62
2023/03/17 01:48:42;;;;;;;9.10;8.20;;;;;;;5.18;90.38;96357.66;5061941;28;20205;-62
2023/03/17 01:51:12;;;;;;;8.90;8.00;;;;;;;5.19;90.31;96356.63;5072557;28;20553;-62
2023/03/17 01:53:38;;;;;;;9.77;8.03;;;;;;;5.09;91.09;96356.25;5069562;28;20830;-62
2023/03/17 01:56:05;;;;;;;8.60;7.80;;;;;;;5.02;91.15;96351.06;5072365;28;20188;-61
2023/03/17 01:58:32;;;;;;;8.33;7.43;;;;;;;5.03;91.12;96353.47;5072522;28;20270;-60
2023/03/17 02:00:57;;;;;;;8.70;7.90;;;;;;;5.02;91.54;96338.91;5072668;28;20181;-61
2023/03/17 02:03:23;;;;;;;9.23;7.87;;;;;;;4.95;92.35;96339.91;5072922;28;20165;-62
2023/03/17 02:05:51;;;;;;;9.33;8.27;;;;;;;4.95;92.77;96338.13;5071768;28;20539;-62
2023/03/17 02:08:17;;;;;;;9.30;8.40;;;;;;;4.90;92.63;96334.53;5072056;28;20201;-60
2023/03/17 02:10:44;;;;;;;9.53;8.63;;;;;;;5.01;92.42;96344.31;5072297;28;20220;-61
2023/03/17 02:13:12;;;;;;;10.33;9.40;;;;;;;4.98;93.11;96347.28;5071908;28;20188;-62
2023/03/17 02:15:38;;;;;;;11.97;10.87;;;;;;;4.87;93.20;96345.31;5072074;28;20259;-60
2023/03/17 02:18:03;;;;;;;12.47;11.40;;;;;;;4.87;93.89;96340.91;5071244;28;20181;-62
2023/03/17 02:20:29;;;;;;;12.03;11.07;;;;;;;4.81;94.09;96346.13;5072255;28;20258;-62
2023/03/17 02:22:56;;;;;;;12.17;10.97;;;;;;;4.72;94.58;96349.91;5072163;28;20212;-62
2023/03/17 02:25:23;;;;;;;11.33;9.93;;;;;;;4.72;95.03;96342.94;5071613;28;20201;-61
2023/03/17 02:27:56;;;;;;;10.60;9.17;;;;;;;4.75;94.94;96334.72;5070687;28;20267;-61
2023/03/17 02:30:23;;;;;;;9.77;8.93;;;;;;;4.68;95.36;96338.34;5072228;28;20201;-61
2023/03/17 02:32:49;;;;;;;10.83;9.63;;;;;;;4.65;95.74;96349.13;5071485;28;20625;-62
2023/03/17 02:35:14;;;;;;;10.27;9.37;;;;;;;4.56;96.87;96353.72;5073867;28;20247;-61
2023/03/17 02:37:42;;;;;;;9.43;8.50;;;;;;;4.55;96.24;96342.53;5068644;28;20264;-61
2023/03/17 02:40:10;;;;;;;9.77;8.73;;;;;;;4.59;96.58;96348.13;5075920;28;20205;-62
2023/03/17 02:42:38;;;;;;;10.17;9.20;;;;;;;4.52;96.99;96348.13;5075557;28;20184;-62
2023/03/17 02:45:05;;;;;;;9.07;8.30;;;;;;;4.54;97.06;96343.53;5075720;28;20652;-61
2023/03/17 02:47:31;;;;;;;8.97;8.17;;;;;;;4.58;96.79;96336.13;5074790;28;20280;-62
2023/03/17 02:49:57;;;;;;;8.57;7.77;;;;;;;4.61;96.09;96343.53;5074764;28;20300;-62
2023/03/17 02:52:23;;;;;;;8.23;7.37;;;;;;;4.63;95.84;96338.94;5074235;28;20177;-63
2023/03/17 02:54:49;;;;;;;9.27;8.47;;;;;;;4.66;95.62;96341.13;5054180;28;20220;-62
2023/03/17 02:57:15;;;;;;;8.50;7.80;;;;;;;4.59;95.92;96330.75;5055800;28;20174;-62
2023/03/17 02:59:40;;;;;;;8.70;7.90;;;;;;;4.69;95.40;96327.75;5055105;28;20340;-62
2023/03/17 03:02:05;;;;;;;9.13;8.33;;;;;;;4.66;95.41;96322.97;5054989;28;20220;-62
2023/03/17 03:04:31;;;;;;;8.60;7.80;;;;;;;4.65;95.74;96317.97;5055446;28;20166;-62
2023/03/17 03:06:57;;;;;;;8.17;7.37;;;;;;;4.54;97.00;96309.78;5056025;28;20626;-62
2023/03/17 03:09:23;;;;;;;10.50;7.97;;;;;;;4.54;96.49;96309.78;5057262;28;20210;-62
2023/03/17 03:11:48;;;;;;;8.50;7.70;;;;;;;4.56;96.77;96309.59;5056042;28;20182;-62
2023/03/17 03:14:14;;;;;;;9.10;8.13;;;;;;;4.57;96.13;96326.75;5055357;28;20292;-61
2023/03/17 03:16:40;;;;;;;9.37;8.47;;;;;;;4.69;95.28;96322.56;5055548;28;20174;-62
2023/03/17 03:19:06;;;;;;;9.47;8.43;;;;;;;4.72;94.90;96316.19;5055788;28;20256;-61
2023/03/17 03:21:32;;;;;;;8.53;7.70;;;;;;;4.69;94.99;96314.78;5040001;28;20544;-61
2023/03/17 03:23:57;;;;;;;10.27;9.37;;;;;;;4.65;95.26;96311.00;5055607;28;20193;-61
2023/03/17 03:26:23;;;;;;;8.90;8.10;;;;;;;4.64;95.46;96311.97;5055486;28;20178;-62
2023/03/17 03:28:48;;;;;;;9.73;8.30;;;;;;;4.58;95.59;96313.59;5055134;28;20210;-62
2023/03/17 03:31:14;;;;;;;9.83;8.50;;;;;;;4.58;95.77;96318.78;5055161;28;20178;-62
2023/03/17 03:33:41;;;;;;;8.50;7.77;;;;;;;4.54;96.57;96314.19;5054818;28;20189;-62
2023/03/17 03:36:07;;;;;;;8.73;7.87;;;;;;;4.51;96.90;96319.78;5053019;28;20182;-62
2023/03/17 03:38:33;;;;;;;8.63;7.83;;;;;;;4.53;97.26;96308.19;5036992;28;20225;-62
2023/03/17 03:40:59;;;;;;;8.83;7.93;;;;;;;4.52;96.57;96313.56;5054234;28;20182;-62
2023/03/17 03:43:25;;;;;;;9.17;8.27;;;;;;;4.43;96.77;96310.41;5054538;28;20244;-62
2023/03/17 03:45:51;;;;;;;9.03;8.13;;;;;;;4.40;97.53;96318.56;5053804;28;20190;-62
2023/03/17 03:48:17;;;;;;;10.73;9.07;;;;;;;4.34;98.22;96323.78;5053752;28;20296;-62
2023/03/17 03:50:43;;;;;;;8.63;7.90;;;;;;;4.21;98.96;96314.19;5054564;28;20272;-63
2023/03/17 03:53:08;;;;;;;8.23;7.43;;;;;;;4.14;99.13;96327.13;5051654;28;20697;-62
2023/03/17 03:55:34;;;;;;;9.47;7.93;;;;;;;4.12;99.48;96321.34;5035651;28;20205;-62
2023/03/17 03:58:12;;;;;;;9.87;8.87;;;;;;;4.07;99.47;96315.13;5054313;28;20178;-62
2023/03/17 04:00:37;;;;;;;9.60;8.40;;;;;;;4.06;100.00;96314.38;5053779;28;20184;-63
2023/03/17 04:03:10;;;;;;;9.33;8.43;;;;;;;4.07;100.00;96318.53;5054634;28;20260;-62
2023/03/17 04:05:35;;;;;;;10.87;8.50;;;;;;;4.04;100.00;96312.94;5016424;28;20255;-62
2023/03/17 04:08:01;;;;;;;9.63;8.73;;;;;;;4.00;100.00;96317.75;5044168;28;20249;-62
2023/03/17 04:10:26;;;;;;;9.10;8.30;;;;;;;4.03;100.00;96312.16;5054474;28;20177;-61
2023/03/17 04:12:51;;;;;;;10.33;7.93;;;;;;;3.99;100.00;96312.75;5053981;28;20227;-62
2023/03/17 04:15:18;;;;;;;9.70;8.73;;;;;;;3.89;100.00;96307.94;5037885;28;20273;-61
2023/03/17 04:17:44;;;;;;;10.00;8.53;;;;;;;3.85;100.00;96301.53;5056688;28;20177;-62
2023/03/17 04:20:11;;;;;;;9.03;8.23;;;;;;;3.88;100.00;96303.75;5055594;28;20684;-61
2023/03/17 04:22:37;;;;;;;9.77;8.37;;;;;;;3.87;100.00;96306.53;5053994;28;20638;-61
2023/03/17 04:25:03;;;;;;;9.33;8.37;;;;;;;3.79;100.00;96304.91;5053359;28;20166;-62
2023/03/17 04:27:29;;;;;;;12.13;8.30;;;;;;;3.86;100.00;96308.31;5053897;28;20170;-61
2023/03/17 04:29:54;;;;;;;9.87;8.87;;;;;;;3.72;100.00;96301.53;5053761;28;20198;-61
2023/03/17 04:32:20;;;;;;;9.43;8.53;;;;;;;3.72;100.00;96297.16;5053535;28;20324;-60
2023/03/17 04:34:45;;;;;;;11.17;9.20;;;;;;;3.69;100.00;96302.69;5051513;28;20206;-62
2023/03/17 04:37:11;;;;;;;11.80;8.60;;;;;;;3.70;100.00;96304.31;5053758;28;20535;-61
2023/03/17 04:39:36;;;;;;;9.80;8.53;;;;;;;3.75;100.00;96298.53;5053712;28;20324;-61
2023/03/17 04:42:03;;;;;;;9.83;8.77;;;;;;;3.77;100.00;96293.97;5054015;28;20193;-61
2023/03/17 04:44:28;;;;;;;9.27;8.37;;;;;;;3.72;100.00;96283.38;5053654;28;20669;-61
2023/03/17 04:46:54;;;;;;;9.73;8.73;;;;;;;3.74;100.00;96284.78;5052531;28;20182;-59
2023/03/17 04:49:20;;;;;;;9.00;8.10;;;;;;;3.65;100.00;96288.53;5053310;28;20201;-61
2023/03/17 04:51:45;;;;;;;9.47;8.57;;;;;;;3.58;100.00;96286.91;5053294;28;20262;-61
2023/03/17 04:54:11;;;;;;;10.43;9.27;;;;;;;3.64;100.00;96280.97;5081477;28;20271;-61
2023/03/17 04:56:36;;;;;;;9.47;8.40;;;;;;;3.60;100.00;96277.16;5092251;28;20179;-61
2023/03/17 04:59:02;;;;;;;10.07;9.17;;;;;;;3.59;100.00;96278.16;5093927;28;20200;-60
2023/03/17 05:01:27;;;;;;;9.73;8.83;;;;;;;3.63;100.00;96274.97;5093673;28;20226;-62
2023/03/17 05:03:53;;;;;;;9.60;8.70;;;;;;;3.64;100.00;96276.56;5093278;28;20199;-62
2023/03/17 05:06:18;;;;;;;10.00;9.10;;;;;;;3.58;100.00;96279.94;5093127;28;20216;-59
2023/03/17 05:08:44;;;;;;;10.00;9.00;;;;;;;3.55;100.00;96285.53;5093210;28;20287;-62
2023/03/17 05:11:10;;;;;;;10.00;9.00;;;;;;;3.57;100.00;96270.56;5093641;28;20209;-62
2023/03/17 05:13:36;;;;;;;11.10;9.03;;;;;;;3.53;100.00;96278.94;5093265;28;20716;-61
2023/03/17 05:16:02;;;;;;;9.73;8.73;;;;;;;3.50;100.00;96269.78;5092748;28;20173;-60
2023/03/17 05:18:29;;;;;;;9.67;8.73;;;;;;;3.50;100.00;96268.97;5093411;28;20200;-62
2023/03/17 05:20:55;;;;;;;10.40;9.37;;;;;;;3.55;100.00;96275.16;5093547;28;20176;-62
2023/03/17 05:23:21;;;;;;;9.40;8.50;;;;;;;3.55;100.00;96262.22;5093112;28;20195;-63
2023/03/17 05:25:47;;;;;;;10.30;9.20;;;;;;;3.57;100.00;96262.00;5092910;28;20164;-63
2023/03/17 05:28:13;;;;;;;11.47;9.17;;;;;;;3.56;100.00;96265.59;5092976;28;20201;-62
2023/03/17 05:30:39;;;;;;;9.47;8.47;;;;;;;3.57;100.00;96267.97;5093031;28;20168;-62
2023/03/17 05:33:05;;;;;;;10.03;9.10;;;;;;;3.48;100.00;96270.94;5092498;28;20595;-62
2023/03/17 05:35:31;;;;;;;10.77;8.33;;;;;;;3.50;100.00;96267.19;5090531;28;20579;-62
2023/03/17 05:37:56;;;;;;;9.53;7.83;;;;;;;3.62;100.00;96280.38;5092947;28;20234;-63
2023/03/17 05:40:22;;;;;;;8.43;7.70;;;;;;;3.66;100.00;96284.16;5092711;28;20180;-63
2023/03/17 05:42:50;;;;;;;8.87;7.97;;;;;;;3.76;100.00;96287.97;5092958;28;20554;-62
2023/03/17 05:45:16;;;;;;;8.93;8.03;;;;;;;3.83;97.65;96295.78;5092564;28;20188;-65
2023/03/17 05:47:42;;;;;;;8.87;8.17;;;;;;;3.91;96.65;96289.59;5091841;28;20545;-62
2023/03/17 05:50:09;;;;;;;9.53;8.63;;;;;;;4.00;96.74;96284.03;5092660;28;20283;-63
2023/03/17 05:52:36;;;;;;;9.03;7.97;;;;;;;4.03;94.97;96283.63;5068038;28;20207;-61
2023/03/17 05:55:03;;;;;;;9.17;8.27;;;;;;;4.06;94.78;96282.44;5053102;28;20198;-61
2023/03/17 05:57:29;;;;;;;8.27;7.57;;;;;;;4.13;94.83;96278.03;5053059;28;20222;-62
2023/03/17 05:59:54;;;;;;;8.07;7.27;;;;;;;4.13;94.37;96283.22;5058060;28;20571;-62
2023/03/17 06:02:19;;;;;;;8.10;7.30;;;;;;;4.24;93.63;96274.88;5047493;28;20174;-63
2023/03/17 06:04:45;;;;;;;8.13;7.33;;;;;;;4.31;92.69;96272.28;5052377;28;20258;-63
2023/03/17 06:07:11;;;;;;;8.53;7.80;;;;;;;4.29;92.12;96277.66;5052355;28;20181;-64
2023/03/17 06:09:37;;;;;;;8.13;7.33;;;;;;;4.51;90.93;96273.09;5051499;28;20198;-64
2023/03/17 06:12:03;;;;;;;8.40;7.53;;;;;;;4.65;89.41;96279.03;5056959;28;20265;-63
2023/03/17 06:14:28;;;;;;;7.73;7.03;;;;;;;4.97;87.91;96262.59;5068914;28;20286;-63
2023/03/17 06:16:54;;;;;;;9.87;8.40;;;;;;;5.14;86.72;96273.34;5071921;28;20197;-63
2023/03/17 06:19:20;;;;;;;7.93;7.27;;;;;;;5.46;84.70;96269.03;5036929;28;20208;-63
2023/03/17 06:21:45;;;;;;;8.03;6.47;;;;;;;5.71;81.87;96278.50;5055727;28;20175;-63
2023/03/17 06:24:11;;;;;;;5.87;5.37;;;;;;;5.87;77.09;96287.63;5057583;28;20181;-62
2023/03/17 06:26:37;;;;;;;8.07;7.47;;;;;;;6.06;74.55;96288.53;5058950;28;20170;-62
2023/03/17 06:29:09;;;;;;;6.63;6.13;;;;;;;6.18;72.44;96272.03;5055379;28;20580;-62
2023/03/17 06:32:10;;;;;;;16.87;8.00;;;;;;;6.30;70.90;96286.97;5056571;28;20218;-63
2023/03/17 06:34:35;;;;;;;8.73;7.93;;;;;;;6.15;69.72;96290.66;5033119;28;20277;-63
2023/03/17 06:37:03;;;;;;;8.33;7.73;;;;;;;6.21;68.83;96292.41;5048821;28;20178;-63
2023/03/17 06:39:29;;;;;;;9.17;8.53;;;;;;;6.26;68.44;96281.38;5052573;28;20198;-62
2023/03/17 06:41:55;;;;;;;9.17;8.43;;;;;;;6.38;68.82;96282.28;5059127;28;20535;-62
2023/03/17 06:44:20;;;;;;;6.77;6.13;;;;;;;6.35;68.02;96287.13;5071857;28;20173;-63
2023/03/17 06:46:46;;;;;;;6.10;5.60;;;;;;;6.72;66.08;96283.59;5067813;28;20189;-63
2023/03/17 06:49:12;;;;;;;5.80;5.40;;;;;;;7.01;67.28;96282.94;5056462;28;20206;-61
2023/03/17 06:51:38;;;;;;;8.03;7.23;;;;;;;7.36;64.11;96280.50;5056611;28;20208;-64
2023/03/17 06:54:05;;;;;;;8.37;6.83;;;;;;;7.68;63.75;96275.94;5055984;28;20245;-62
2023/03/17 06:56:31;;;;;;;7.90;7.33;;;;;;;7.99;62.41;96280.13;5053372;28;20174;-63
2023/03/17 06:58:58;;;;;;;11.57;10.57;;;;;;;8.19;61.50;96275.38;5046867;28;20681;-62
2023/03/17 07:01:24;;;;;;;10.37;9.77;;;;;;;8.35;60.50;96281.84;5071680;28;20173;-63
2023/03/17 07:03:50;;;;;;;11.83;10.93;;;;;;;8.43;61.83;96278.88;5064945;28;20335;-64
2023/03/17 07:06:15;;;;;;;10.13;9.07;;;;;;;8.47;63.77;96280.00;5051880;28;20182;-64
2023/03/17 07:08:41;;;;;;;9.53;8.53;;;;;;;8.44;65.20;96279.69;5065843;28;20205;-64
2023/03/17 07:11:07;;;;;;;13.73;12.60;;;;;;;8.59;64.45;96280.81;5071433;28;20661;-65
2023/03/17 07:13:34;;;;;;;15.93;14.77;;;;;;;8.61;64.45;96289.25;5068055;28;20175;-66
2023/03/17 07:16:01;;;;;;;13.70;12.63;;;;;;;8.79;63.17;96290.16;5052199;28;20281;-65
2023/03/17 07:18:30;;;;;;;9.13;8.43;;;;;;;8.93;62.46;96288.91;5063064;28;20731;-65
2023/03/17 07:20:57;;;;;;;13.87;12.87;;;;;;;8.82;63.10;96293.09;5067252;28;20517;-63
2023/03/17 07:23:23;;;;;;;9.03;8.23;;;;;;;8.91;63.14;96306.63;5055461;28;20192;-61
2023/03/17 07:25:49;;;;;;;7.23;6.00;;;;;;;8.92;61.57;96293.31;5054486;28;20170;-61
2023/03/17 07:28:15;;;;;;;7.33;5.43;;;;;;;8.93;59.74;96292.31;5059452;28;20520;-61
2023/03/17 07:30:45;;;;;;;8.40;4.90;;;;;;;8.77;59.12;96291.19;5054659;28;20173;-61
2023/03/17 07:33:16;;;;;;;9.17;5.43;;;;;;;8.91;58.34;96291.75;5065965;28;20685;-61
2023/03/17 07:35:44;;;;;;;4.97;4.60;;;;;;;9.02;58.31;96300.63;5034874;28;20199;-61
2023/03/17 07:38:10;;;;;;;4.90;4.50;;;;;;;9.05;58.44;96295.72;5025179;28;20176;-61
2023/03/17 07:40:37;;;;;;;5.63;4.80;;;;;;;9.09;57.71;96290.81;5067025;28;20177;-61
2023/03/17 07:43:03;;;;;;;5.37;4.97;;;;;;;9.03;57.74;96294.34;5074655;28;20545;-64
2023/03/17 07:45:28;;;;;;;10.00;9.10;;;;;;;9.69;79.54;96288.66;5050320;28;20173;-59
2023/03/17 07:47:54;;;;;;;36.53;34.37;;;;;;;10.58;66.48;96289.72;5065434;28;20182;-62
2023/03/17 07:50:20;;;;;;;5.90;5.50;;;;;;;10.51;56.86;96296.94;5068309;28;20181;-64
2023/03/17 07:55:37;;;;;;;5.57;5.17;;;;;;;9.74;54.49;96286.13;5079679;28;20257;-64
2023/03/17 07:58:03;;;;;;;6.67;6.17;;;;;;;9.69;54.40;96285.25;5044762;28;20188;-63
2023/03/17 08:00:29;;;;;;;6.93;5.63;;;;;;;9.67;54.47;96275.00;5072883;28;20256;-64
2023/03/17 08:02:55;;;;;;;5.37;5.07;;;;;;;9.79;54.03;96277.56;5075086;28;20173;-62
2023/03/17 08:05:21;;;;;;;5.23;4.90;;;;;;;9.89;53.86;96283.78;5074648;28;20207;-62
2023/03/17 08:07:46;;;;;;;6.50;5.30;;;;;;;10.01;54.19;96288.97;5074739;28;20215;-62
2023/03/17 08:10:12;;;;;;;5.40;5.00;;;;;;;9.89;53.87;96281.19;5074687;28;20189;-62
2023/03/17 08:12:39;;;;;;;7.37;6.53;;;;;;;10.02;53.93;96273.03;5067946;28;20642;-62
2023/03/17 08:15:05;;;;;;;5.63;5.23;;;;;;;10.02;54.09;96283.53;5054129;28;20247;-62
2023/03/17 08:17:31;;;;;;;5.93;5.13;;;;;;;10.14;53.67;96286.06;5054190;28;20159;-62
2023/03/17 08:19:57;;;;;;;5.23;4.70;;;;;;;10.30;53.41;96289.78;5054261;28;20201;-62
2023/03/17 08:22:23;;;;;;;4.77;4.40;;;;;;;10.47;53.50;96290.59;5053362;28;20177;-61
2023/03/17 08:24:49;;;;;;;8.30;5.93;;;;;;;10.45;53.66;96289.22;5018119;28;20179;-60
2023/03/17 08:27:17;;;;;;;5.87;5.00;;;;;;;10.65;53.98;96287.72;5050384;28;20178;-61
2023/03/17 08:29:42;;;;;;;5.40;4.90;;;;;;;10.70;53.40;96297.50;5046954;28;20233;-61
2023/03/17 08:32:08;;;;;;;5.47;4.97;;;;;;;10.72;52.61;96288.34;5033599;28;20487;-63
2023/03/17 08:34:33;;;;;;;6.07;5.57;;;;;;;10.79;53.30;96293.44;5036501;28;20685;-62
2023/03/17 08:37:00;;;;;;;6.60;6.10;;;;;;;10.91;52.93;96291.53;5045775;28;20232;-61
2023/03/17 08:39:26;;;;;;;5.70;5.03;;;;;;;10.93;52.57;96291.25;5048141;28;20691;-62
2023/03/17 08:41:51;;;;;;;5.30;4.93;;;;;;;11.00;51.68;96284.03;5037692;28;20186;-62
2023/03/17 08:44:18;;;;;;;8.57;5.67;;;;;;;10.96;51.82;96278.47;5033874;28;20194;-62
2023/03/17 08:46:43;;;;;;;6.27;5.73;;;;;;;11.01;51.51;96283.78;5044032;28;20182;-62
2023/03/17 08:49:09;;;;;;;6.30;5.90;;;;;;;11.15;51.40;96279.78;5039210;28;20198;-62
2023/03/17 08:51:37;;;;;;;6.07;5.67;;;;;;;11.34;51.07;96280.28;5048753;28;20659;-62
2023/03/17 08:54:04;;;;;;;7.60;6.30;;;;;;;11.47;50.75;96279.16;5033343;28;20206;-62
2023/03/17 08:56:30;;;;;;;6.10;5.70;;;;;;;11.50;50.83;96278.66;5084335;28;20772;-62
2023/03/17 08:58:55;;;;;;;5.83;5.30;;;;;;;11.51;50.81;96280.25;5075309;28;20238;-62
2023/03/17 09:01:23;;;;;;;5.53;5.13;;;;;;;11.59;51.38;96279.81;5093812;28;20168;-62
2023/03/17 09:03:53;;;;;;;6.20;5.80;;;;;;;11.76;52.02;96271.91;5093432;28;20544;-62
2023/03/17 09:06:21;;;;;;;5.93;5.43;;;;;;;11.74;51.24;96274.78;5093276;28;20252;-62
2023/03/17 09:08:49;;;;;;;6.53;6.03;;;;;;;11.58;52.95;96278.22;5093402;28;20549;-62
2023/03/17 09:11:19;;;;;;;7.07;6.67;;;;;;;11.48;53.61;96272.88;5093258;28;20234;-61
2023/03/17 09:13:46;;;;;;;6.10;4.80;;;;;;;11.70;53.78;96268.41;5092714;28;20173;-62
2023/03/17 09:16:13;;;;;;;6.10;5.00;;;;;;;11.80;53.73;96273.00;5092935;28;20176;-62
2023/03/17 09:18:47;;;;;;;6.83;6.13;;;;;;;12.01;53.39;96266.91;5093795;28;20208;-62
2023/03/17 09:21:14;;;;;;;6.27;5.77;;;;;;;11.96;52.71;96267.66;5093394;28;20187;-59
2023/03/17 09:23:40;;;;;;;6.57;6.17;;;;;;;12.19;52.51;96265.75;5093147;28;20176;-62
2023/03/17 09:26:06;;;;;;;6.60;6.10;;;;;;;12.31;52.13;96267.19;5092726;28;20656;-62
2023/03/17 09:28:32;;;;;;;7.83;7.20;;;;;;;12.45;53.15;96265.72;5074607;28;20200;-61
2023/03/17 09:31:00;;;;;;;7.83;7.23;;;;;;;12.53;52.81;96259.22;5092897;28;20172;-62
2023/03/17 09:33:26;;;;;;;5.63;5.20;;;;;;;12.60;52.17;96261.63;5091694;28;20279;-62
2023/03/17 09:35:53;;;;;;;6.03;5.33;;;;;;;12.60;51.66;96262.41;5093300;28;20204;-62
2023/03/17 09:38:18;;;;;;;6.70;6.10;;;;;;;12.62;51.92;96272.69;5092382;28;20728;-64
2023/03/17 09:40:56;;;;;;;15.27;14.17;;;;;;;12.67;48.92;96265.63;5092595;28;20204;-61
2023/03/17 09:43:45;;;;;;;8.27;7.77;;;;;;;12.73;47.65;96264.63;5073238;28;20176;-62
2023/03/17 09:46:37;;;;;;;8.23;7.37;;;;;;;12.75;47.43;96272.25;5091729;28;20307;-63
2023/03/17 09:49:43;;;;;;;7.33;6.70;;;;;;;12.78;47.40;96274.38;5037219;28;20277;-61
2023/03/17 09:52:14;;;;;;;7.57;7.07;;;;;;;12.83;48.60;96280.47;5051034;28;20232;-61
2023/03/17 09:54:41;;;;;;;8.13;7.53;;;;;;;12.97;49.17;96272.13;5089506;28;20216;-62
2023/03/17 09:57:31;;;;;;;6.20;5.80;;;;;;;13.06;48.99;96273.25;5092829;28;20189;-61
2023/03/17 10:00:04;;;;;;;6.67;6.07;;;;;;;13.05;48.24;96272.44;5092626;28;20563;-61
2023/03/17 10:02:32;;;;;;;10.23;9.60;;;;;;;13.15;46.65;96274.41;5091744;28;20167;-62
2023/03/17 10:05:06;;;;;;;18.10;17.20;;;;;;;13.37;44.73;96269.78;5091800;28;20161;-62
2023/03/17 10:07:56;;;;;;;13.13;12.17;;;;;;;13.57;46.09;96267.22;5092846;28;20561;-62
2023/03/17 10:10:46;;;;;;;12.23;11.43;;;;;;;13.53;46.55;96262.72;5091783;28;20639;-62
2023/03/17 10:13:31;;;;;;;13.30;12.40;;;;;;;13.68;46.57;96266.19;5092273;28;20169;-62
2023/03/17 10:16:06;;;;;;;14.93;14.00;;;;;;;13.82;45.87;96265.72;5092519;28;20192;-62
2023/03/17 10:18:43;;;;;;;14.97;14.17;;;;;;;13.98;44.59;96257.59;5092571;28;20226;-62
2023/03/17 10:21:15;;;;;;;10.30;9.70;;;;;;;14.07;44.42;96252.59;5092515;28;20173;-62
2023/03/17 10:23:42;;;;;;;7.50;7.03;;;;;;;14.11;47.03;96258.91;5092789;28;20244;-63
2023/03/17 10:26:45;;;;;;;7.03;6.43;;;;;;;14.25;42.43;96256.56;5092255;28;20641;-63
2023/03/17 10:29:16;;;;;;;4.97;4.77;;;;;;;14.28;42.56;96248.13;5090962;28;20652;-63
2023/03/17 10:31:42;;;;;;;5.33;5.00;;;;;;;14.56;42.04;96248.44;5089450;28;20648;-62
2023/03/17 10:34:22;;;;;;;8.63;8.10;;;;;;;14.77;40.54;96249.19;5091840;28;20189;-62
2023/03/17 10:37:18;;;;;;;9.00;8.53;;;;;;;15.09;39.68;96245.47;5073823;28;20181;-63
2023/03/17 10:39:47;;;;;;;8.93;7.63;;;;;;;15.24;40.82;96242.75;5081248;28;20212;-63
2023/03/17 10:42:15;;;;;;;10.63;9.93;;;;;;;15.40;41.64;96237.16;5092600;28;20197;-63
2023/03/17 10:45:24;;;;;;;9.77;9.17;;;;;;;15.61;41.60;96243.16;5092319;28;20188;-63
2023/03/17 10:47:50;;;;;;;7.70;7.20;;;;;;;15.54;41.47;96226.06;5090852;28;20551;-63
2023/03/17 10:50:31;;;;;;;6.53;6.00;;;;;;;15.69;41.61;96236.53;5092229;28;20211;-63
2023/03/17 10:52:56;;;;;;;8.23;7.70;;;;;;;15.61;42.44;96239.75;5089486;28;20189;-63
2023/03/17 10:55:28;;;;;;;4.88;4.47;;;;;;;15.80;41.25;96240.72;5101038;28;20235;-65
2023/03/17 10:58:14;;;;;;;5.35;5.05;;;;;;;16.00;40.53;96242.44;5097722;28;20322;-63
2023/03/17 11:00:54;;;;;;;6.03;5.53;;;;;;;15.80;42.27;96240.72;5116393;28;20643;-62
2023/03/17 11:03:26;;;;;;;4.53;4.07;;;;;;;15.93;42.09;96240.13;5116207;28;20160;-64
2023/03/17 11:06:00;;;;;;;4.63;4.32;;;;;;;15.87;42.83;96241.22;5116365;28;20178;-64
2023/03/17 11:08:31;;;;;;;5.78;5.30;;;;;;;15.77;43.73;96226.19;5116326;28;20242;-63
2023/03/17 11:10:56;;;;;;;9.13;8.55;;;;;;;15.67;44.92;96228.09;5116069;28;20204;-63
2023/03/17 11:13:28;;;;;;;10.93;9.95;;;;;;;15.56;45.52;96221.28;5115899;28;20172;-63
2023/03/17 11:16:22;;;;;;;12.32;11.65;;;;;;;15.56;45.22;96221.28;5116006;28;20224;-64
2023/03/17 11:18:55;;;;;;;10.88;10.05;;;;;;;15.86;44.36;96221.13;5103700;28;20218;-63
2023/03/17 11:21:23;;;;;;;6.90;6.30;;;;;;;15.97;42.98;96217.34;5116233;28;20176;-63
2023/03/17 11:24:03;;;;;;;7.22;6.60;;;;;;;16.20;43.00;96214.03;5115972;28;20160;-64
2023/03/17 11:26:53;;;;;;;6.57;4.97;;;;;;;16.56;41.87;96211.06;5099698;28;20631;-64
2023/03/17 11:29:37;;;;;;;4.78;4.43;;;;;;;16.46;41.34;96213.81;5115945;28;20203;-64
2023/03/17 11:32:23;;;;;;;4.47;4.07;;;;;;;16.52;41.71;96202.91;5107262;28;20215;-64
2023/03/17 11:34:50;;;;;;;11.27;10.43;;;;;;;16.62;40.88;96208.13;5110822;28;20195;-65
2023/03/17 11:37:23;;;;;;;23.58;22.23;;;;;;;16.71;39.49;96195.13;5115213;28;20199;-65
2023/03/17 11:40:02;;;;;;;26.90;25.27;;;;;;;16.99;39.66;96199.59;5115916;28;20215;-65
2023/03/17 11:42:36;;;;;;;22.77;21.55;;;;;;;17.06;38.68;96201.88;5107542;28;20183;-66
2023/03/17 11:45:08;;;;;;;21.27;20.05;;;;;;;17.21;39.04;96193.78;5115821;28;20651;-65